Time;durP1;ratioP1;P1;durP2;ratioP2;P2;SDS_P1;SDS_P2;PMS_P1;PMS_P2;Temp;Humidity;BMP_temperature;BMP_pressure;BME280_temperature;BME280_humidity;BME280_pressure;Samples;Min_cycle;Max_cycle;Signal;HPM_P1;HPM_P2
2024/01/01 00:01:55;;;;;;;3.75;3.40;;;7.60;99.90;;;;;;5093458;28;20040;-75
2024/01/01 00:04:20;;;;;;;3.67;2.85;;;7.60;99.90;;;;;;5093101;28;20487;-74
2024/01/01 00:06:46;;;;;;;1.85;1.75;;;7.70;99.90;;;;;;5093593;28;20032;-74
2024/01/01 00:09:12;;;;;;;2.03;1.90;;;7.70;99.90;;;;;;5076273;28;20043;-81
2024/01/01 00:11:37;;;;;;;2.55;2.35;;;7.70;99.90;;;;;;5093652;28;20040;-67
2024/01/01 00:14:03;;;;;;;1.80;1.70;;;8.00;99.90;;;;;;5093614;28;20032;-71
2024/01/01 00:16:29;;;;;;;5.57;2.83;;;7.80;99.90;;;;;;5092771;28;20481;-69
2024/01/01 00:18:55;;;;;;;1.80;1.70;;;7.80;99.90;;;;;;5093242;28;20032;-74
2024/01/01 00:21:20;;;;;;;1.75;1.65;;;7.80;99.90;;;;;;5092822;28;20044;-71
2024/01/01 00:23:46;;;;;;;3.83;3.53;;;7.80;99.90;;;;;;5093434;28;20042;-67
2024/01/01 00:26:13;;;;;;;5.32;3.00;;;7.80;99.90;;;;;;5091977;28;20048;-69
2024/01/01 00:28:38;;;;;;;3.33;3.08;;;7.90;99.90;;;;;;5093438;28;20082;-69
2024/01/01 00:31:04;;;;;;;7.05;3.50;;;8.40;99.90;;;;;;5093531;28;20040;-71
2024/01/01 00:33:30;;;;;;;3.30;3.08;;;7.80;99.90;;;;;;5092182;28;20056;-70
2024/01/01 00:35:56;;;;;;;2.65;2.45;;;7.90;99.90;;;;;;5088305;28;20051;-71
2024/01/01 00:38:21;;;;;;;1.92;1.83;;;7.90;99.90;;;;;;5089326;28;20036;-74
2024/01/01 00:40:47;;;;;;;1.70;1.60;;;7.90;99.90;;;;;;5087601;28;20032;-72
2024/01/01 00:43:12;;;;;;;2.65;2.45;;;8.00;99.90;;;;;;5091170;28;20371;-72
2024/01/01 00:45:38;;;;;;;1.98;1.77;;;7.90;99.90;;;;;;5086377;28;20036;-70
2024/01/01 00:48:04;;;;;;;2.33;1.23;;;7.90;99.90;;;;;;5090693;28;20032;-71
2024/01/01 00:50:30;;;;;;;3.35;1.88;;;7.90;99.90;;;;;;5086717;28;20377;-71
2024/01/01 00:52:55;;;;;;;1.00;1.00;;;8.80;99.90;;;;;;5095192;28;20028;-71
2024/01/01 00:55:21;;;;;;;1.98;1.85;;;8.00;99.90;;;;;;5093759;28;20065;-72
2024/01/01 00:57:48;;;;;;;1.13;1.00;;;8.00;99.90;;;;;;5093916;28;20036;-73
2024/01/01 01:00:14;;;;;;;2.75;2.55;;;8.00;99.90;;;;;;5089175;28;20036;-71
2024/01/01 01:02:40;;;;;;;3.40;3.20;;;8.00;99.90;;;;;;5091196;28;20482;-72
2024/01/01 01:05:06;;;;;;;0.95;0.95;;;8.00;99.90;;;;;;5097343;28;20391;-70
2024/01/01 01:07:31;;;;;;;1.52;1.42;;;8.00;99.90;;;;;;5098087;28;20036;-68
2024/01/01 01:09:57;;;;;;;1.00;1.00;;;7.90;99.90;;;;;;5096356;28;20057;-68
2024/01/01 01:12:23;;;;;;;1.38;1.27;;;7.90;99.90;;;;;;5095112;28;20039;-69
2024/01/01 01:14:49;;;;;;;1.08;1.00;;;8.70;99.90;;;;;;5095913;28;20462;-70
2024/01/01 01:17:14;;;;;;;1.53;1.43;;;7.90;99.90;;;;;;5076422;28;20033;-70
2024/01/01 01:19:40;;;;;;;1.17;1.08;;;7.90;99.90;;;;;;5078866;28;20121;-70
2024/01/01 01:22:06;;;;;;;1.23;1.13;;;7.90;99.90;;;;;;5096465;28;20091;-71
2024/01/01 01:24:31;;;;;;;2.20;2.10;;;7.90;99.90;;;;;;5096450;28;20097;-69
2024/01/01 01:26:57;;;;;;;1.10;1.00;;;8.00;99.90;;;;;;5095301;28;20085;-69
2024/01/01 01:29:24;;;;;;;4.32;3.80;;;7.90;99.90;;;;;;5095370;28;20040;-69
2024/01/01 01:31:50;;;;;;;0.90;0.90;;;7.90;99.90;;;;;;5096245;28;20051;-69
2024/01/01 01:34:15;;;;;;;0.90;0.90;;;7.90;99.90;;;;;;5094830;28;20044;-69
2024/01/01 01:36:41;;;;;;;1.90;1.80;;;7.90;99.90;;;;;;5084698;28;20036;-69
2024/01/01 01:39:06;;;;;;;0.80;0.80;;;7.90;99.90;;;;;;5094006;28;20048;-70
2024/01/01 01:41:32;;;;;;;1.35;1.25;;;7.90;99.90;;;;;;5096065;28;20059;-70
2024/01/01 01:43:58;;;;;;;1.63;1.52;;;7.90;99.90;;;;;;5096269;28;20036;-70
2024/01/01 01:46:25;;;;;;;1.40;1.30;;;8.20;99.90;;;;;;5096290;28;20036;-69
2024/01/01 01:48:51;;;;;;;1.38;1.27;;;7.90;99.90;;;;;;5095705;28;20103;-69
2024/01/01 01:51:17;;;;;;;0.80;0.80;;;8.90;99.90;;;;;;5096175;28;20119;-69
2024/01/01 01:53:43;;;;;;;0.82;0.82;;;7.90;99.90;;;;;;5092399;28;20521;-69
2024/01/01 01:56:09;;;;;;;1.13;1.10;;;8.00;99.90;;;;;;5095016;28;20035;-70
2024/01/01 01:58:36;;;;;;;2.50;1.20;;;7.90;99.90;;;;;;5093299;28;20089;-70
2024/01/01 02:01:01;;;;;;;4.78;2.40;;;7.80;99.90;;;;;;5093745;28;20560;-69
2024/01/01 02:03:27;;;;;;;1.05;1.00;;;7.80;99.90;;;;;;5094529;28;20040;-70
2024/01/01 02:05:54;;;;;;;0.88;0.88;;;7.80;99.90;;;;;;5083737;28;20040;-69
2024/01/01 02:08:21;;;;;;;4.53;1.60;;;7.80;99.90;;;;;;5080799;28;20533;-69
2024/01/01 02:10:47;;;;;;;1.05;0.98;;;7.90;99.90;;;;;;5089357;28;20032;-69
2024/01/01 02:13:29;;;;;;;1.00;1.00;;;7.90;99.90;;;;;;5080724;28;20039;-69
2024/01/01 02:15:55;;;;;;;0.80;0.80;;;7.80;99.90;;;;;;5075553;28;20376;-70
2024/01/01 02:18:21;;;;;;;0.93;0.93;;;7.80;99.90;;;;;;5087607;28;20128;-70
2024/01/01 02:20:46;;;;;;;0.80;0.80;;;8.00;99.90;;;;;;5081830;28;20084;-70
2024/01/01 02:23:18;;;;;;;0.90;0.90;;;8.80;99.90;;;;;;5091135;28;20404;-70
2024/01/01 02:25:44;;;;;;;1.13;1.02;;;7.90;99.90;;;;;;5093654;28;20425;-70
2024/01/01 02:28:10;;;;;;;3.67;2.67;;;8.40;99.90;;;;;;5094306;28;20040;-70
2024/01/01 02:30:36;;;;;;;0.82;0.82;;;7.90;99.90;;;;;;5095315;28;20498;-69
2024/01/01 02:33:11;;;;;;;1.15;1.05;;;7.80;99.90;;;;;;5095391;28;20059;-70
2024/01/01 02:35:37;;;;;;;1.45;1.35;;;8.20;99.90;;;;;;5093850;28;20088;-70
2024/01/01 02:38:04;;;;;;;2.45;2.25;;;7.80;99.90;;;;;;5079075;28;20116;-69
2024/01/01 02:40:37;;;;;;;0.88;0.88;;;7.80;99.90;;;;;;5079173;28;20435;-69
2024/01/01 02:43:03;;;;;;;0.95;0.90;;;7.80;99.90;;;;;;5085037;28;20472;-69
2024/01/01 02:45:29;;;;;;;1.63;1.52;;;7.80;99.90;;;;;;5080960;28;20570;-70
2024/01/01 02:47:55;;;;;;;0.88;0.85;;;7.80;99.90;;;;;;5074930;28;20040;-70
2024/01/01 02:50:21;;;;;;;4.13;3.22;;;7.80;99.90;;;;;;5094111;28;20065;-71
2024/01/01 02:52:51;;;;;;;1.10;1.00;;;7.80;99.90;;;;;;5092839;28;20036;-70
2024/01/01 02:55:16;;;;;;;0.80;0.80;;;7.80;99.90;;;;;;5080173;28;20050;-70
2024/01/01 02:57:42;;;;;;;0.80;0.80;;;7.70;99.90;;;;;;5089696;28;20119;-69
2024/01/01 03:00:14;;;;;;;1.48;1.38;;;8.00;99.90;;;;;;5088633;28;20032;-69
2024/01/01 03:02:41;;;;;;;0.80;0.80;;;7.70;99.90;;;;;;5081334;28;20036;-69
2024/01/01 03:05:07;;;;;;;0.80;0.80;;;7.70;99.90;;;;;;5083739;28;20032;-69
2024/01/01 03:07:33;;;;;;;1.77;1.67;;;7.60;99.90;;;;;;5082291;28;20032;-69
2024/01/01 03:09:59;;;;;;;1.15;1.13;;;7.60;99.90;;;;;;5082364;28;20046;-69
2024/01/01 03:12:26;;;;;;;0.73;0.73;;;7.60;99.90;;;;;;5075570;28;20033;-70
2024/01/01 03:14:51;;;;;;;1.00;1.00;;;7.60;99.90;;;;;;5091658;28;20036;-69
2024/01/01 03:17:17;;;;;;;0.80;0.80;;;7.90;99.90;;;;;;5084021;28;20132;-70
2024/01/01 03:19:43;;;;;;;0.90;0.90;;;7.50;99.90;;;;;;5074169;28;20051;-70
2024/01/01 03:22:08;;;;;;;0.85;0.85;;;7.50;99.90;;;;;;5086620;28;20430;-70
2024/01/01 03:24:34;;;;;;;0.80;0.80;;;7.50;99.90;;;;;;5089850;28;20052;-70
2024/01/01 03:26:59;;;;;;;0.80;0.80;;;7.50;99.90;;;;;;5074362;28;20032;-70
2024/01/01 03:29:25;;;;;;;1.23;1.13;;;7.50;99.90;;;;;;5074166;28;20106;-70
2024/01/01 03:31:50;;;;;;;5.57;3.13;;;7.40;99.90;;;;;;5084760;28;20047;-70
2024/01/01 03:34:16;;;;;;;0.80;0.80;;;7.40;99.90;;;;;;5093099;28;20040;-70
2024/01/01 03:36:42;;;;;;;0.80;0.80;;;7.40;99.90;;;;;;5079178;28;20035;-70
2024/01/01 03:39:08;;;;;;;0.80;0.80;;;8.40;99.90;;;;;;5093910;28;20490;-71
2024/01/01 03:41:33;;;;;;;0.80;0.80;;;7.30;99.90;;;;;;5077095;28;20041;-70
2024/01/01 03:43:59;;;;;;;0.80;0.80;;;7.30;99.90;;;;;;5074369;28;20090;-70
2024/01/01 03:46:25;;;;;;;0.88;0.88;;;7.30;99.90;;;;;;5073889;28;20039;-70
2024/01/01 03:48:50;;;;;;;0.80;0.80;;;7.20;99.90;;;;;;5078540;28;20111;-70
2024/01/01 03:51:16;;;;;;;0.70;0.70;;;7.20;99.90;;;;;;5081223;28;20479;-70
2024/01/01 03:53:42;;;;;;;0.80;0.80;;;7.10;99.90;;;;;;5080045;28;20086;-70
2024/01/01 03:56:07;;;;;;;0.80;0.80;;;7.10;99.90;;;;;;5084306;28;20032;-70
2024/01/01 03:58:33;;;;;;;0.90;0.90;;;7.10;99.90;;;;;;5087188;28;20047;-70
2024/01/01 04:00:59;;;;;;;0.70;0.70;;;7.70;99.90;;;;;;5090795;28;20067;-70
2024/01/01 04:03:24;;;;;;;0.80;0.80;;;7.10;99.90;;;;;;5083519;28;20044;-70
2024/01/01 04:05:50;;;;;;;0.80;0.80;;;7.00;99.90;;;;;;5084787;28;20031;-70
2024/01/01 04:08:16;;;;;;;1.00;1.00;;;8.20;99.90;;;;;;5076803;28;20043;-71
2024/01/01 04:10:41;;;;;;;0.95;0.95;;;7.10;99.90;;;;;;5085495;28;20064;-70
2024/01/01 04:13:07;;;;;;;1.05;1.05;;;7.10;99.90;;;;;;5081332;28;20123;-71
2024/01/01 04:15:32;;;;;;;0.80;0.80;;;7.00;99.90;;;;;;5077895;28;20048;-70
2024/01/01 04:17:58;;;;;;;0.80;0.80;;;7.10;99.90;;;;;;5084018;28;20039;-70
2024/01/01 04:20:23;;;;;;;0.73;0.73;;;7.00;99.90;;;;;;5079802;28;20032;-70
2024/01/01 04:22:51;;;;;;;0.80;0.80;;;7.00;99.90;;;;;;5084152;28;20123;-71
2024/01/01 04:25:18;;;;;;;0.80;0.80;;;7.00;99.90;;;;;;5089671;28;20040;-71
2024/01/01 04:27:44;;;;;;;0.80;0.80;;;7.10;99.90;;;;;;5089328;28;20036;-71
2024/01/01 04:30:10;;;;;;;0.80;0.80;;;7.00;99.90;;;;;;5097814;28;20051;-71
2024/01/01 04:32:36;;;;;;;0.87;0.87;;;7.00;99.90;;;;;;5096838;28;20044;-71
2024/01/01 04:35:03;;;;;;;0.90;0.90;;;7.00;99.90;;;;;;5097716;28;20517;-71
2024/01/01 04:37:29;;;;;;;0.80;0.80;;;7.00;99.90;;;;;;5096310;28;20056;-70
2024/01/01 04:39:54;;;;;;;2.13;1.98;;;7.00;99.90;;;;;;5097638;28;20525;-70
2024/01/01 04:42:20;;;;;;;0.75;0.75;;;7.00;99.90;;;;;;5097236;28;20036;-71
2024/01/01 04:44:46;;;;;;;0.80;0.80;;;7.00;99.90;;;;;;5077848;28;20044;-71
2024/01/01 04:47:11;;;;;;;2.08;1.90;;;7.00;99.90;;;;;;5077163;28;20043;-71
2024/01/01 04:49:38;;;;;;;0.80;0.80;;;7.00;99.90;;;;;;5077080;28;20043;-71
2024/01/01 04:52:04;;;;;;;0.80;0.80;;;7.00;99.90;;;;;;5087711;28;20031;-70
2024/01/01 04:54:30;;;;;;;0.80;0.80;;;6.90;99.90;;;;;;5097268;28;20515;-70
2024/01/01 04:56:55;;;;;;;0.82;0.82;;;7.00;99.90;;;;;;5096939;28;20040;-71
2024/01/01 04:59:21;;;;;;;0.90;0.90;;;7.00;99.90;;;;;;5096961;28;20051;-71
2024/01/01 05:01:46;;;;;;;0.80;0.80;;;7.00;99.90;;;;;;5085641;28;20483;-71
2024/01/01 05:04:12;;;;;;;0.80;0.80;;;7.00;99.90;;;;;;5097065;28;20039;-71
2024/01/01 05:06:38;;;;;;;0.90;0.90;;;7.00;99.90;;;;;;5087977;28;20063;-71
2024/01/01 05:09:04;;;;;;;0.80;0.80;;;7.60;99.90;;;;;;5087156;28;20043;-71
2024/01/01 05:11:30;;;;;;;0.80;0.80;;;7.00;99.90;;;;;;5079772;28;20025;-69
2024/01/01 05:13:56;;;;;;;0.80;0.80;;;7.00;99.90;;;;;;5077132;28;20422;-68
2024/01/01 05:16:23;;;;;;;1.00;1.00;;;7.50;99.90;;;;;;5081365;28;20380;-70
2024/01/01 05:18:48;;;;;;;1.27;1.00;;;7.50;99.90;;;;;;5082458;28;21183;-70
2024/01/01 05:21:14;;;;;;;0.80;0.80;;;7.00;99.90;;;;;;5092016;28;20138;-68
2024/01/01 05:23:39;;;;;;;0.90;0.90;;;7.00;99.90;;;;;;5091228;28;20426;-70
2024/01/01 05:26:06;;;;;;;0.90;0.90;;;6.90;99.90;;;;;;5095531;28;20028;-69
2024/01/01 05:28:31;;;;;;;0.80;0.80;;;6.90;99.90;;;;;;5091630;28;20039;-68
2024/01/01 05:30:57;;;;;;;0.80;0.80;;;6.90;99.90;;;;;;5078793;28;20036;-70
2024/01/01 05:33:22;;;;;;;1.00;1.00;;;7.50;99.90;;;;;;5094832;28;20076;-70
2024/01/01 05:35:48;;;;;;;0.90;0.90;;;7.60;99.90;;;;;;5085189;28;20119;-70
2024/01/01 05:38:13;;;;;;;0.90;0.90;;;6.80;99.90;;;;;;5090304;28;20071;-68
2024/01/01 05:40:42;;;;;;;1.17;1.00;;;6.80;99.90;;;;;;5088127;28;20036;-68
2024/01/01 05:43:07;;;;;;;0.80;0.80;;;6.90;99.90;;;;;;5093181;28;20036;-68
2024/01/01 05:45:33;;;;;;;1.48;1.38;;;6.80;99.90;;;;;;5081968;28;20089;-68
2024/01/01 05:47:59;;;;;;;0.90;0.90;;;7.80;99.90;;;;;;5080443;28;20036;-71
2024/01/01 05:50:26;;;;;;;0.90;0.90;;;6.80;99.90;;;;;;5075955;28;20044;-70
2024/01/01 05:52:52;;;;;;;0.85;0.85;;;6.90;99.90;;;;;;5082513;28;20059;-70
2024/01/01 05:55:18;;;;;;;0.90;0.90;;;6.80;99.90;;;;;;5094679;28;20468;-68
2024/01/01 05:57:43;;;;;;;1.08;0.98;;;7.90;99.90;;;;;;5083064;28;20082;-70
2024/01/01 06:00:10;;;;;;;0.90;0.90;;;6.90;99.90;;;;;;5076308;28;20713;-69
2024/01/01 06:02:35;;;;;;;0.90;0.90;;;6.70;99.90;;;;;;5081658;28;20044;-70
2024/01/01 06:05:01;;;;;;;1.77;1.67;;;6.70;99.90;;;;;;5080826;28;20044;-70
2024/01/01 06:07:27;;;;;;;0.90;0.90;;;6.70;99.90;;;;;;5078414;28;20044;-70
2024/01/01 06:09:52;;;;;;;1.00;0.95;;;6.70;99.90;;;;;;5089430;28;20068;-70
2024/01/01 06:12:18;;;;;;;0.90;0.90;;;6.80;99.90;;;;;;5094263;28;20039;-68
2024/01/01 06:14:45;;;;;;;0.90;0.90;;;6.80;99.90;;;;;;5087501;28;20419;-70
2024/01/01 06:17:11;;;;;;;0.98;0.95;;;6.80;99.90;;;;;;5081047;28;20514;-69
2024/01/01 06:19:36;;;;;;;0.90;0.90;;;6.70;99.90;;;;;;5088875;28;20044;-68
2024/01/01 06:22:02;;;;;;;0.90;0.90;;;6.70;99.90;;;;;;5082751;28;20048;-69
2024/01/01 06:24:27;;;;;;;0.80;0.80;;;6.70;99.90;;;;;;5075624;28;20119;-68
2024/01/01 06:26:53;;;;;;;0.80;0.80;;;6.70;99.90;;;;;;5092393;28;20387;-68
2024/01/01 06:29:19;;;;;;;1.45;1.35;;;6.70;99.90;;;;;;5095584;28;20040;-68
2024/01/01 06:31:44;;;;;;;0.80;0.80;;;6.70;99.90;;;;;;5094154;28;20480;-68
2024/01/01 06:34:10;;;;;;;0.80;0.80;;;6.80;99.90;;;;;;5095447;28;20097;-68
2024/01/01 06:36:36;;;;;;;0.80;0.80;;;7.80;99.90;;;;;;5095311;28;20074;-70
2024/01/01 06:39:03;;;;;;;1.25;1.13;;;7.10;99.90;;;;;;5095175;28;20048;-70
2024/01/01 06:41:28;;;;;;;0.93;0.93;;;6.70;99.90;;;;;;5094431;28;20040;-70
2024/01/01 06:43:54;;;;;;;0.80;0.80;;;7.50;99.90;;;;;;5090980;28;20105;-70
2024/01/01 06:46:19;;;;;;;0.80;0.80;;;6.70;99.90;;;;;;5094547;28;20492;-70
2024/01/01 06:48:45;;;;;;;0.90;0.90;;;6.80;99.90;;;;;;5094414;28;20036;-70
2024/01/01 06:51:11;;;;;;;0.90;0.90;;;6.80;99.90;;;;;;5094795;28;20373;-70
2024/01/01 06:53:37;;;;;;;0.80;0.80;;;6.80;99.90;;;;;;5094746;28;20361;-70
2024/01/01 06:56:03;;;;;;;0.80;0.80;;;6.70;99.90;;;;;;5093633;28;20036;-70
2024/01/01 06:58:28;;;;;;;0.90;0.90;;;6.70;99.90;;;;;;5093758;28;20093;-70
2024/01/01 07:00:54;;;;;;;1.20;1.15;;;6.70;99.90;;;;;;5084944;28;20111;-70
2024/01/01 07:03:20;;;;;;;0.90;0.90;;;6.70;99.90;;;;;;5077713;28;20041;-70
2024/01/01 07:05:45;;;;;;;0.90;0.90;;;6.70;99.90;;;;;;5078643;28;20400;-70
2024/01/01 07:08:12;;;;;;;0.93;0.93;;;6.70;99.90;;;;;;5082576;28;20048;-70
2024/01/01 07:10:37;;;;;;;0.80;0.80;;;6.70;99.90;;;;;;5084331;28;20475;-70
2024/01/01 07:13:03;;;;;;;0.80;0.80;;;6.70;99.90;;;;;;5087452;28;20043;-70
2024/01/01 07:15:29;;;;;;;1.45;1.35;;;6.70;99.90;;;;;;5124408;27;20060;-71
2024/01/01 07:17:54;;;;;;;0.82;0.82;;;6.70;99.90;;;;;;5075317;28;20037;-71
2024/01/01 07:20:20;;;;;;;1.38;1.27;;;7.80;99.90;;;;;;5080019;28;20101;-71
2024/01/01 07:22:46;;;;;;;0.90;0.90;;;6.70;99.90;;;;;;5091030;28;20036;-82
2024/01/01 07:25:12;;;;;;;0.80;0.80;;;6.80;99.90;;;;;;5087585;28;20553;-71
2024/01/01 07:27:39;;;;;;;0.80;0.80;;;6.70;99.90;;;;;;5080535;28;20032;-72
2024/01/01 07:30:06;;;;;;;1.08;0.98;;;6.70;99.90;;;;;;5085253;28;20115;-70
2024/01/01 07:32:31;;;;;;;0.90;0.90;;;6.70;99.90;;;;;;5089615;28;20052;-71
2024/01/01 07:34:57;;;;;;;0.80;0.80;;;6.70;99.90;;;;;;5077914;28;20119;-71
2024/01/01 07:37:23;;;;;;;0.80;0.80;;;6.70;99.90;;;;;;5089365;28;20039;-71
2024/01/01 07:39:50;;;;;;;0.82;0.82;;;6.70;99.90;;;;;;5082787;28;20035;-74
2024/01/01 07:42:15;;;;;;;0.90;0.90;;;6.80;99.90;;;;;;5077176;28;20161;-72
2024/01/01 07:44:41;;;;;;;0.90;0.90;;;6.70;99.90;;;;;;5082082;28;20122;-77
2024/01/01 07:47:08;;;;;;;0.80;0.80;;;6.70;99.90;;;;;;5085429;28;20043;-72
2024/01/01 07:49:34;;;;;;;0.85;0.85;;;7.50;99.90;;;;;;5090911;28;20035;-71
2024/01/01 07:52:01;;;;;;;2.00;1.90;;;6.70;99.90;;;;;;5080572;28;20046;-69
2024/01/01 07:54:27;;;;;;;0.80;0.80;;;6.70;99.90;;;;;;5091079;28;20505;-73
2024/01/01 07:56:53;;;;;;;0.90;0.90;;;6.70;99.90;;;;;;5080936;28;20115;-69
2024/01/01 07:59:19;;;;;;;1.20;1.17;;;7.70;99.90;;;;;;5078993;28;20373;-74
2024/01/01 08:01:44;;;;;;;0.80;0.80;;;7.90;99.90;;;;;;5079813;28;20040;-71
2024/01/01 08:04:10;;;;;;;2.40;1.63;;;6.80;99.90;;;;;;5074249;28;20036;-71
2024/01/01 08:06:36;;;;;;;0.80;0.80;;;6.70;99.90;;;;;;5081742;28;20039;-71
2024/01/01 08:09:02;;;;;;;1.20;1.10;;;6.70;99.90;;;;;;5082625;28;20298;-72
2024/01/01 08:11:28;;;;;;;0.90;0.90;;;6.70;99.90;;;;;;5085067;28;20090;-75
2024/01/01 08:13:53;;;;;;;0.90;0.90;;;6.70;99.90;;;;;;5078421;28;20092;-73
2024/01/01 08:16:19;;;;;;;0.80;0.80;;;6.70;99.90;;;;;;5092042;28;20514;-74
2024/01/01 08:18:48;;;;;;;1.30;1.20;;;6.70;99.90;;;;;;5091553;28;20032;-78
2024/01/01 08:21:14;;;;;;;0.90;0.90;;;6.70;99.90;;;;;;5089999;28;20076;-74
2024/01/01 08:23:39;;;;;;;0.85;0.85;;;6.70;99.90;;;;;;5087023;28;20071;-70
2024/01/01 08:26:05;;;;;;;0.82;0.82;;;6.70;99.90;;;;;;5092896;28;20059;-72
2024/01/01 08:28:33;;;;;;;4.05;3.65;;;7.70;99.90;;;;;;5093430;28;20058;-74
2024/01/01 08:31:00;;;;;;;0.80;0.80;;;6.90;99.90;;;;;;5093567;28;20040;-74
2024/01/01 08:33:25;;;;;;;0.90;0.90;;;7.90;99.90;;;;;;5093535;28;20131;-74
2024/01/01 08:35:55;;;;;;;0.90;0.90;;;6.70;99.90;;;;;;5093214;28;20115;-76
2024/01/01 08:38:21;;;;;;;0.80;0.80;;;6.70;99.90;;;;;;5092568;28;20040;-76
2024/01/01 08:40:47;;;;;;;0.80;0.80;;;6.80;99.90;;;;;;5089198;28;20036;-74
2024/01/01 08:43:13;;;;;;;0.80;0.80;;;6.80;99.90;;;;;;5091212;28;20036;-73
2024/01/01 08:45:39;;;;;;;0.90;0.90;;;7.80;99.90;;;;;;5093429;28;20040;-74
2024/01/01 08:48:05;;;;;;;0.80;0.80;;;6.80;99.90;;;;;;5092549;28;20066;-78
2024/01/01 08:50:30;;;;;;;0.90;0.90;;;6.80;99.90;;;;;;5092711;28;20028;-78
2024/01/01 08:52:56;;;;;;;1.00;1.00;;;6.80;99.90;;;;;;5093371;28;20040;-77
2024/01/01 08:55:22;;;;;;;0.90;0.90;;;6.80;99.90;;;;;;5093173;28;20040;-79
2024/01/01 08:57:47;;;;;;;0.80;0.80;;;6.90;99.90;;;;;;5092141;28;20036;-77
2024/01/01 09:00:16;;;;;;;0.90;0.90;;;6.90;99.90;;;;;;5076016;28;20436;-76
2024/01/01 09:02:42;;;;;;;0.90;0.90;;;6.90;99.90;;;;;;5080182;28;20036;-79
2024/01/01 09:05:08;;;;;;;0.80;0.80;;;6.90;99.90;;;;;;5091824;28;20044;-81
2024/01/01 09:07:33;;;;;;;0.80;0.80;;;6.90;99.90;;;;;;5093386;28;20063;-74
2024/01/01 09:10:01;;;;;;;0.88;0.88;;;7.00;99.90;;;;;;5092854;28;20040;-77
2024/01/01 09:12:27;;;;;;;1.58;1.48;;;7.00;99.90;;;;;;5087771;28;20044;-91
2024/01/01 09:14:53;;;;;;;0.90;0.90;;;7.40;99.90;;;;;;5077480;28;20075;-75
2024/01/01 09:17:19;;;;;;;0.85;0.85;;;7.00;99.90;;;;;;5084953;28;20412;-80
2024/01/01 09:19:44;;;;;;;0.80;0.80;;;7.00;99.90;;;;;;5089441;28;20049;-76
2024/01/01 09:22:10;;;;;;;0.93;0.90;;;7.80;99.90;;;;;;5086414;28;20533;-76
2024/01/01 09:24:35;;;;;;;1.20;1.10;;;7.00;99.90;;;;;;5095710;28;20039;-74
2024/01/01 09:27:01;;;;;;;0.90;0.90;;;7.10;99.90;;;;;;5094864;28;20036;-71
2024/01/01 09:29:27;;;;;;;0.90;0.90;;;7.10;99.90;;;;;;5095513;28;20028;-80
2024/01/01 09:31:53;;;;;;;0.85;0.85;;;7.10;99.90;;;;;;5092490;28;20055;-76
2024/01/01 09:34:18;;;;;;;0.90;0.90;;;7.10;99.90;;;;;;5095307;28;20043;-73
2024/01/01 09:36:44;;;;;;;0.80;0.80;;;7.80;99.90;;;;;;5095794;28;20532;-77
2024/01/01 09:39:10;;;;;;;1.58;1.48;;;7.70;99.90;;;;;;5095231;28;20032;-87
2024/01/01 09:41:35;;;;;;;0.80;0.80;;;7.10;99.90;;;;;;5078467;28;20127;-77
2024/01/01 09:44:02;;;;;;;0.80;0.80;;;7.10;99.90;;;;;;5095275;28;20051;-82
2024/01/01 09:46:32;;;;;;;0.80;0.80;;;7.10;99.90;;;;;;5094461;28;20036;-79
2024/01/01 09:48:59;;;;;;;0.90;0.90;;;7.50;99.90;;;;;;5093771;28;20039;-78
2024/01/01 09:51:26;;;;;;;0.90;0.90;;;7.20;99.90;;;;;;5095459;28;20047;-75
2024/01/01 09:53:52;;;;;;;0.88;0.88;;;8.00;99.90;;;;;;5096512;28;20429;-74
2024/01/01 09:56:23;;;;;;;0.80;0.80;;;8.10;99.90;;;;;;5095556;28;20058;-71
2024/01/01 09:58:49;;;;;;;0.90;0.90;;;7.20;99.90;;;;;;5095425;28;20040;-75
2024/01/01 10:01:19;;;;;;;1.70;1.60;;;7.30;99.90;;;;;;5101864;28;20038;-73
2024/01/01 10:04:03;;;;;;;0.80;0.80;;;7.20;99.90;;;;;;5095871;28;20036;-77
2024/01/01 10:06:30;;;;;;;0.80;0.80;;;7.20;99.90;;;;;;5094552;28;20604;-73
2024/01/01 10:09:11;;;;;;;1.20;1.10;;;7.20;99.90;;;;;;5095187;28;20122;-73
2024/01/01 10:11:40;;;;;;;1.20;1.10;;;7.70;99.90;;;;;;5095128;28;20047;-73
2024/01/01 10:14:11;;;;;;;0.70;0.70;;;7.20;99.90;;;;;;5095452;28;20040;-74
2024/01/01 10:16:38;;;;;;;0.80;0.80;;;7.20;99.90;;;;;;5095267;28;20078;-72
2024/01/01 10:19:04;;;;;;;0.80;0.80;;;7.20;99.90;;;;;;5095157;28;20435;-74
2024/01/01 10:21:38;;;;;;;1.00;1.00;;;7.10;99.90;;;;;;5107564;28;20051;-74
2024/01/01 10:24:13;;;;;;;0.77;0.77;;;7.10;99.90;;;;;;5080507;28;20089;-72
2024/01/01 10:26:43;;;;;;;0.80;0.80;;;7.10;99.90;;;;;;5087455;28;20047;-74
2024/01/01 10:29:13;;;;;;;0.90;0.90;;;7.10;99.90;;;;;;5094301;28;20051;-71
2024/01/01 10:31:47;;;;;;;0.80;0.80;;;7.10;99.90;;;;;;5093551;28;20044;-77
2024/01/01 10:34:13;;;;;;;0.82;0.82;;;7.20;99.90;;;;;;5096037;28;20058;-74
2024/01/01 10:36:42;;;;;;;0.80;0.80;;;7.20;99.90;;;;;;5098937;28;20076;-80
2024/01/01 10:39:09;;;;;;;0.80;0.80;;;7.30;99.90;;;;;;5113322;28;20096;-71
2024/01/01 10:41:37;;;;;;;0.90;0.90;;;7.20;99.90;;;;;;5094323;28;20040;-74
2024/01/01 10:44:03;;;;;;;0.82;0.82;;;7.20;99.90;;;;;;5109461;28;20482;-73
2024/01/01 10:46:31;;;;;;;0.80;0.80;;;7.20;99.90;;;;;;5096687;28;20055;-72
2024/01/01 10:48:58;;;;;;;0.85;0.85;;;7.20;99.90;;;;;;5098235;28;20032;-73
2024/01/01 10:51:46;;;;;;;0.80;0.80;;;7.80;99.90;;;;;;5094172;28;20044;-71
2024/01/01 10:54:14;;;;;;;0.80;0.80;;;7.20;99.90;;;;;;5083107;28;20044;-75
2024/01/01 10:57:12;;;;;;;0.80;0.80;;;7.50;99.90;;;;;;5092562;28;20073;-70
2024/01/01 10:59:51;;;;;;;1.00;1.00;;;7.30;99.90;;;;;;5094223;28;20044;-75
2024/01/01 11:02:18;;;;;;;0.80;0.80;;;7.30;99.90;;;;;;5093953;28;20080;-75
2024/01/01 11:04:47;;;;;;;0.90;0.90;;;7.30;99.90;;;;;;5094604;28;20040;-73
2024/01/01 11:07:13;;;;;;;0.80;0.80;;;7.30;99.90;;;;;;5095066;28;20274;-73
2024/01/01 11:09:39;;;;;;;0.82;0.82;;;7.30;99.90;;;;;;5094658;28;20047;-73
2024/01/01 11:12:05;;;;;;;0.80;0.80;;;7.30;99.90;;;;;;5091982;28;20035;-68
2024/01/01 11:14:38;;;;;;;1.08;1.08;;;7.30;99.90;;;;;;5085195;28;20045;-76
2024/01/01 11:17:06;;;;;;;0.90;0.90;;;7.40;99.90;;;;;;5074226;28;20040;-73
2024/01/01 11:19:41;;;;;;;0.80;0.80;;;7.30;99.90;;;;;;5094134;28;20040;-70
2024/01/01 11:22:18;;;;;;;0.90;0.90;;;7.30;99.90;;;;;;5095541;28;20040;-70
2024/01/01 11:24:45;;;;;;;;;;;7.30;99.90;;;;;;5074681;28;20354;-75
2024/01/01 11:27:23;;;;;;;0.82;0.82;;;7.30;99.90;;;;;;5074060;28;20368;-77
2024/01/01 11:30:11;;;;;;;0.80;0.80;;;7.30;99.90;;;;;;5092831;28;20047;-72
2024/01/01 11:32:37;;;;;;;0.80;0.80;;;7.20;99.90;;;;;;5092648;28;20036;-73
2024/01/01 11:35:15;;;;;;;0.90;0.90;;;7.40;99.90;;;;;;5096344;28;20571;-72
2024/01/01 11:37:42;;;;;;;0.82;0.82;;;7.20;99.90;;;;;;5102116;28;20091;-74
2024/01/01 11:40:09;;;;;;;1.00;1.00;;;7.20;99.90;;;;;;5104514;28;20047;-69
2024/01/01 11:42:41;;;;;;;0.90;0.90;;;7.10;99.90;;;;;;5093676;28;20110;-72
2024/01/01 11:45:17;;;;;;;0.80;0.80;;;7.10;99.90;;;;;;5090162;28;20105;-72
2024/01/01 11:47:46;;;;;;;0.80;0.80;;;7.10;99.90;;;;;;5093309;28;20044;-74
2024/01/01 11:50:13;;;;;;;0.90;0.90;;;7.20;99.90;;;;;;5083858;28;20049;-67
2024/01/01 11:52:39;;;;;;;0.80;0.80;;;7.10;99.90;;;;;;5088147;28;20044;-69
2024/01/01 11:55:06;;;;;;;0.80;0.80;;;7.20;99.90;;;;;;5087108;28;20032;-69
2024/01/01 11:57:32;;;;;;;0.90;0.90;;;7.20;99.90;;;;;;5088076;28;20042;-74
2024/01/01 11:59:58;;;;;;;0.90;0.90;;;7.30;99.90;;;;;;5092340;28;20039;-75
2024/01/01 12:02:24;;;;;;;0.80;0.80;;;7.30;99.90;;;;;;5093419;28;20503;-75
2024/01/01 12:04:52;;;;;;;0.80;0.80;;;7.30;99.90;;;;;;5092013;28;20051;-73
2024/01/01 12:07:34;;;;;;;0.75;0.75;;;7.80;99.90;;;;;;5083352;28;20312;-73
2024/01/01 12:10:06;;;;;;;0.80;0.80;;;7.50;99.90;;;;;;5092197;28;20503;-73
2024/01/01 12:12:33;;;;;;;0.80;0.80;;;7.70;99.90;;;;;;5090208;28;20472;-76
2024/01/01 12:15:16;;;;;;;0.80;0.80;;;7.70;99.90;;;;;;5090542;28;20115;-74
2024/01/01 12:17:44;;;;;;;0.80;0.80;;;7.80;99.90;;;;;;5092483;28;20034;-76
2024/01/01 12:20:13;;;;;;;0.80;0.80;;;7.80;99.90;;;;;;5084582;28;20081;-74
2024/01/01 12:22:39;;;;;;;0.80;0.80;;;7.90;99.90;;;;;;5089110;28;20057;-75
2024/01/01 12:25:06;;;;;;;0.90;0.90;;;8.50;99.90;;;;;;5088048;28;20044;-75
2024/01/01 12:27:31;;;;;;;0.85;0.85;;;8.00;99.90;;;;;;5086130;28;20649;-74
2024/01/01 12:29:58;;;;;;;0.80;0.80;;;8.00;99.90;;;;;;5093472;28;20036;-73
2024/01/01 12:32:24;;;;;;;0.80;0.80;;;8.10;99.90;;;;;;5088037;28;20044;-82
2024/01/01 12:34:54;;;;;;;0.90;0.90;;;8.10;99.90;;;;;;5066299;28;20360;-77
2024/01/01 12:37:20;;;;;;;0.80;0.80;;;8.10;99.90;;;;;;5090625;28;20089;-77
2024/01/01 12:39:46;;;;;;;0.80;0.80;;;8.10;99.90;;;;;;5087016;28;20032;-74
2024/01/01 12:42:11;;;;;;;0.80;0.80;;;8.70;99.90;;;;;;5092317;28;20051;-82
2024/01/01 12:44:37;;;;;;;0.80;0.80;;;8.00;99.90;;;;;;5110840;28;20130;-77
2024/01/01 12:47:03;;;;;;;0.90;0.90;;;7.90;99.90;;;;;;5112664;28;20045;-76
2024/01/01 12:49:34;;;;;;;0.85;0.85;;;7.80;99.90;;;;;;5116524;27;20499;-77
2024/01/01 12:52:00;;;;;;;0.70;0.70;;;8.00;99.90;;;;;;5114656;28;20444;-76
2024/01/01 12:54:25;;;;;;;0.90;0.90;;;7.70;99.90;;;;;;5115699;28;20039;-76
2024/01/01 12:56:51;;;;;;;0.80;0.80;;;7.70;99.90;;;;;;5115640;28;20039;-72